createdAt,value
2022-09-04T00:00:15.946Z,101728.97
2022-09-04T00:03:04.094Z,101735.13
2022-09-04T00:05:44.146Z,101742.13
2022-09-04T00:08:48.323Z,101741.72
2022-09-04T00:12:00.326Z,101733.06
2022-09-04T00:14:48.192Z,101732.44
2022-09-04T00:17:31.320Z,101742.13
2022-09-04T00:20:03.832Z,101737.56
2022-09-04T00:22:33.755Z,101742.75
2022-09-04T00:25:17.290Z,101736.59
2022-09-04T00:27:47.636Z,101741.72
2022-09-04T00:30:20.423Z,101737.38
2022-09-04T00:33:09.327Z,101744.63
2022-09-04T00:35:44.768Z,101745.03
2022-09-04T00:38:19.253Z,101742.16
2022-09-04T00:41:14.141Z,101743.75
2022-09-04T00:43:56.957Z,101740.69
2022-09-04T00:46:26.967Z,101743.13
2022-09-04T00:49:20.106Z,101749.13
2022-09-04T00:51:47.064Z,101750.78
2022-09-04T00:54:33.938Z,101748.09
2022-09-04T00:57:46.030Z,101754.72
2022-09-04T01:00:17.947Z,101750.81
2022-09-04T01:02:57.129Z,101750.78
2022-09-04T01:05:47.270Z,101750.78
2022-09-04T01:08:35.678Z,101748.13
2022-09-04T01:11:15.189Z,101756.44
2022-09-04T01:14:13.486Z,101757.81
2022-09-04T01:17:12.593Z,101749.38
2022-09-04T01:19:52.339Z,101749.44
2022-09-04T01:22:40.636Z,101753.88
2022-09-04T01:25:48.105Z,101747.69
2022-09-04T01:28:28.402Z,101747.63
2022-09-04T01:31:15.520Z,101739.34
2022-09-04T01:36:49.483Z,101743.06
2022-09-04T01:39:19.535Z,101743.75
2022-09-04T01:42:05.358Z,101745.63
2022-09-04T01:44:34.193Z,101731.84
2022-09-04T01:47:11.193Z,101733.06
2022-09-04T01:49:59.335Z,101733.88
2022-09-04T01:52:45.637Z,101732.66
2022-09-04T01:55:42.120Z,101743.38
2022-09-04T01:58:12.138Z,101738.34
2022-09-04T02:01:13.805Z,101738.41
2022-09-04T02:04:02.867Z,101737.50
2022-09-04T02:06:38.804Z,101738.66
2022-09-04T02:09:42.049Z,101736.78
2022-09-04T02:12:38.026Z,101742.84
2022-09-04T02:15:12.989Z,101738.84
2022-09-04T02:17:46.889Z,101733.56
2022-09-04T02:20:19.812Z,101736.81
2022-09-04T02:22:58.825Z,101741.75
2022-09-04T02:25:36.321Z,101730.88
2022-09-04T02:28:18.396Z,101732.13
2022-09-04T02:30:46.937Z,101741.56
2022-09-04T02:33:35.540Z,101736.50
2022-09-04T02:36:13.747Z,101730.03
2022-09-04T02:38:52.829Z,101731.16
2022-09-04T02:41:37.329Z,101728.34
2022-09-04T02:44:10.591Z,101728.22
2022-09-04T02:46:48.771Z,101733.25
2022-09-04T02:49:25.025Z,101735.28
2022-09-04T02:52:04.771Z,101733.19
2022-09-04T02:55:09.493Z,101735.81
2022-09-04T02:57:59.289Z,101736.16
2022-09-04T03:00:54.533Z,101736.44
2022-09-04T03:03:27.740Z,101729.22
2022-09-04T03:06:09.754Z,101745.31
2022-09-04T03:11:45.892Z,101740.34
2022-09-04T03:14:36.483Z,101743.25
2022-09-04T03:17:24.669Z,101732.75
2022-09-04T03:19:57.242Z,101737.78
2022-09-04T03:22:31.221Z,101733.53
2022-09-04T03:25:05.161Z,101743.44
2022-09-04T03:27:33.408Z,101735.50
2022-09-04T03:30:08.010Z,101736.59
2022-09-04T03:32:51.998Z,101740.13
2022-09-04T03:35:44.881Z,101730.38
2022-09-04T03:38:24.291Z,101733.84
2022-09-04T03:41:06.219Z,101739.31
2022-09-04T03:43:47.821Z,101734.91
2022-09-04T03:46:14.693Z,101747.13
2022-09-04T03:49:02.835Z,101744.97
2022-09-04T03:51:43.024Z,101743.25
2022-09-04T03:54:13.001Z,101741.72
2022-09-04T03:56:56.048Z,101748.69
2022-09-04T03:59:49.478Z,101754.91
2022-09-04T04:02:22.424Z,101750.09
2022-09-04T04:05:00.285Z,101761.59
2022-09-04T04:07:58.366Z,101764.59
2022-09-04T04:10:57.107Z,101766.31
2022-09-04T04:13:55.311Z,101773.91
2022-09-04T04:17:00.244Z,101774.84
2022-09-04T04:19:42.784Z,101772.81
2022-09-04T04:22:34.286Z,101782.91
2022-09-04T04:25:04.238Z,101776.28
2022-09-04T04:27:47.328Z,101779.63
2022-09-04T04:30:19.608Z,101779.00
2022-09-04T04:33:17.628Z,101781.09
2022-09-04T04:35:48.334Z,101792.00
2022-09-04T04:38:25.094Z,101787.00
2022-09-04T04:41:04.186Z,101788.28
2022-09-04T04:44:12.741Z,101787.09
2022-09-04T04:46:52.068Z,101792.84
2022-09-04T04:49:37.380Z,101794.06
2022-09-04T04:52:08.935Z,101795.66
2022-09-04T04:54:57.133Z,101800.56
2022-09-04T04:58:16.432Z,101806.84
2022-09-04T05:00:52.486Z,101811.50
2022-09-04T05:03:25.532Z,101810.81
2022-09-04T05:06:07.087Z,101821.22
2022-09-04T05:08:56.094Z,101816.31
2022-09-04T05:11:52.496Z,101824.38
2022-09-04T05:14:19.390Z,101825.38
2022-09-04T05:17:11.958Z,101821.84
2022-09-04T05:19:45.943Z,101823.50
2022-09-04T05:22:24.920Z,101831.53
2022-09-04T05:25:19.271Z,101829.56
2022-09-04T05:27:58.649Z,101835.66
2022-09-04T05:30:44.167Z,101831.06
2022-09-04T05:33:11.049Z,101838.09
2022-09-04T05:35:56.949Z,101846.41
2022-09-04T05:38:51.371Z,101843.53
2022-09-04T05:41:39.754Z,101844.97
2022-09-04T05:44:18.554Z,101838.22
2022-09-04T05:47:16.406Z,101850.56
2022-09-04T05:49:46.422Z,101845.53
2022-09-04T05:52:51.186Z,101839.84
2022-09-04T05:55:42.464Z,101846.41
2022-09-04T05:58:22.856Z,101851.78
2022-09-04T06:01:12.531Z,101848.63
2022-09-04T06:04:06.108Z,101853.56
2022-09-04T06:06:42.772Z,101845.69
2022-09-04T06:09:31.399Z,101858.66
2022-09-04T06:12:19.612Z,101854.03
2022-09-04T06:14:57.131Z,101861.38
2022-09-04T06:17:42.460Z,101862.56
2022-09-04T06:20:28.046Z,101857.69
2022-09-04T06:23:03.067Z,101866.38
2022-09-04T06:26:01.365Z,101860.91
2022-09-04T06:28:43.600Z,101858.16
2022-09-04T06:31:19.246Z,101863.78
2022-09-04T06:34:07.714Z,101858.66
2022-09-04T06:37:04.174Z,101870.41
2022-09-04T06:39:51.192Z,101860.56
2022-09-04T06:42:47.560Z,101866.22
2022-09-04T06:45:47.526Z,101874.25
2022-09-04T06:48:35.572Z,101865.78
2022-09-04T06:51:07.894Z,101863.69
2022-09-04T06:53:42.878Z,101871.31
2022-09-04T06:56:28.723Z,101857.72
2022-09-04T06:59:08.510Z,101865.34
2022-09-04T07:02:01.643Z,101866.19
2022-09-04T07:04:38.543Z,101867.59
2022-09-04T07:07:16.443Z,101868.41
2022-09-04T07:09:49.665Z,101874.25
2022-09-04T07:12:53.030Z,101880.56
2022-09-04T07:15:24.853Z,101874.25
2022-09-04T07:18:30.018Z,101878.56
2022-09-04T07:21:06.491Z,101880.22
2022-09-04T07:24:06.998Z,101880.72
2022-09-04T07:26:37.190Z,101885.22
2022-09-04T07:29:31.551Z,101896.91
2022-09-04T07:32:25.455Z,101895.69
2022-09-04T07:35:11.255Z,101889.84
2022-09-04T07:37:50.371Z,101896.97
2022-09-04T07:40:20.208Z,101901.84
2022-09-04T07:43:06.051Z,101905.25
2022-09-04T07:45:51.447Z,101906.13
2022-09-04T07:48:21.951Z,101903.19
2022-09-04T07:51:05.987Z,101906.44
2022-09-04T07:53:49.797Z,101914.44
2022-09-04T07:56:46.106Z,101910.59
2022-09-04T07:59:22.675Z,101914.25
2022-09-04T08:02:11.152Z,101919.84
2022-09-04T08:04:51.095Z,101920.78
2022-09-04T08:07:28.729Z,101917.06
2022-09-04T08:09:58.697Z,101914.34
2022-09-04T08:13:09.953Z,101918.75
2022-09-04T08:15:43.829Z,101927.94
2022-09-04T08:18:53.138Z,101927.41
2022-09-04T08:21:33.717Z,101929.16
2022-09-04T08:24:13.861Z,101921.50
2022-09-04T08:26:47.857Z,101927.47
2022-09-04T08:29:45.753Z,101927.00
2022-09-04T08:32:39.687Z,101928.03
2022-09-04T08:35:39.093Z,101932.00
2022-09-04T08:38:36.464Z,101931.03
2022-09-04T08:41:41.865Z,101937.84
2022-09-04T08:44:33.663Z,101936.63
2022-09-04T08:47:10.797Z,101935.56
2022-09-04T08:50:05.726Z,101940.28
2022-09-04T08:52:52.694Z,101931.72
2022-09-04T08:55:26.522Z,101921.78
2022-09-04T08:57:53.395Z,101927.78
2022-09-04T09:00:39.616Z,101923.81
2022-09-04T09:03:30.795Z,101935.75
2022-09-04T09:06:42.914Z,101925.88
2022-09-04T09:09:31.679Z,101923.13
2022-09-04T09:12:09.095Z,101930.25
2022-09-04T09:14:38.968Z,101924.03
2022-09-04T09:17:38.864Z,101927.44
2022-09-04T09:20:08.943Z,101941.88
2022-09-04T09:22:44.863Z,101932.25
2022-09-04T09:25:15.907Z,101930.97
2022-09-04T09:28:01.884Z,101933.06
2022-09-04T09:30:51.194Z,101930.84
2022-09-04T09:33:33.524Z,101934.38
2022-09-04T09:36:06.677Z,101939.50
2022-09-04T09:38:36.395Z,101939.66
2022-09-04T09:41:34.603Z,101932.22
2022-09-04T09:44:26.875Z,101940.06
2022-09-04T09:47:25.301Z,101951.06
2022-09-04T09:50:17.058Z,101950.13
2022-09-04T09:53:13.216Z,101947.84
2022-09-04T09:55:58.930Z,101947.00
2022-09-04T09:58:37.369Z,101945.88
2022-09-04T10:01:24.756Z,101947.28
2022-09-04T10:04:27.536Z,101932.91
2022-09-04T10:07:19.816Z,101937.06
2022-09-04T10:10:18.262Z,101922.56
2022-09-04T10:12:51.434Z,101941.91
2022-09-04T10:15:52.420Z,101932.47
2022-09-04T10:18:57.205Z,101930.66
2022-09-04T10:21:43.185Z,101924.56
2022-09-04T10:24:20.085Z,101926.16
2022-09-04T10:27:28.949Z,101922.91
2022-09-04T10:30:12.110Z,101930.44
2022-09-04T10:33:11.555Z,101925.41
2022-09-04T10:36:06.469Z,101925.00
2022-09-04T10:39:04.143Z,101927.19
2022-09-04T10:41:35.504Z,101922.28
2022-09-04T10:44:17.957Z,101931.81
2022-09-04T10:47:02.492Z,101922.81
2022-09-04T10:49:55.251Z,101917.13
2022-09-04T10:52:54.946Z,101919.81
2022-09-04T10:55:31.547Z,101918.66
2022-09-04T10:58:21.016Z,101912.63
2022-09-04T11:01:23.114Z,101912.25
2022-09-04T11:04:05.402Z,101904.09
2022-09-04T11:06:32.241Z,101918.84
2022-09-04T11:09:30.323Z,101917.91
2022-09-04T11:12:10.164Z,101907.41
2022-09-04T11:15:19.003Z,101912.69
2022-09-04T11:18:04.094Z,101911.47
2022-09-04T11:20:55.031Z,101908.09
2022-09-04T11:23:51.066Z,101915.25
2022-09-04T11:26:39.292Z,101913.13
2022-09-04T11:29:15.256Z,101911.13
2022-09-04T11:32:08.312Z,101907.84
2022-09-04T11:34:57.233Z,101909.50
2022-09-04T11:37:57.870Z,101905.16
2022-09-04T11:40:54.341Z,101905.16
2022-09-04T11:43:27.399Z,101911.56
2022-09-04T11:46:27.531Z,101923.91
2022-09-04T11:49:15.418Z,101917.91
2022-09-04T11:52:04.120Z,101910.50
2022-09-04T11:54:49.601Z,101905.56
2022-09-04T11:57:28.589Z,101910.81
2022-09-04T12:00:01.485Z,101902.91
2022-09-04T12:02:56.886Z,101904.19
2022-09-04T12:05:55.256Z,101897.63
2022-09-04T12:08:35.971Z,101896.72
2022-09-04T12:11:23.857Z,101894.25
2022-09-04T12:13:57.371Z,101892.47
2022-09-04T12:16:46.083Z,101898.16
2022-09-04T12:19:39.993Z,101891.69
2022-09-04T12:22:14.578Z,101894.00
2022-09-04T12:24:41.507Z,101883.53
2022-09-04T12:27:30.217Z,101899.06
2022-09-04T12:30:04.086Z,101899.03
2022-09-04T12:33:08.421Z,101895.19
2022-09-04T12:36:14.661Z,101889.75
2022-09-04T12:38:47.569Z,101903.91
2022-09-04T12:41:50.037Z,101897.50
2022-09-04T12:44:41.959Z,101905.28
2022-09-04T12:47:18.532Z,101905.31
2022-09-04T12:50:21.047Z,101906.03
2022-09-04T12:52:57.308Z,101914.25
2022-09-04T12:56:03.897Z,101901.31
2022-09-04T12:58:52.332Z,101904.00
2022-09-04T13:01:40.498Z,101899.09
2022-09-04T13:04:42.015Z,101909.22
2022-09-04T13:07:41.104Z,101893.47
2022-09-04T13:10:08.186Z,101891.91
2022-09-04T13:13:00.685Z,101899.47
2022-09-04T13:15:36.687Z,101905.44
2022-09-04T13:18:21.317Z,101900.44
2022-09-04T13:21:03.363Z,101895.56
2022-09-04T13:24:03.209Z,101895.81
2022-09-04T13:26:57.327Z,101893.06
2022-09-04T13:29:40.452Z,101894.81
2022-09-04T13:32:38.025Z,101903.31
2022-09-04T13:35:17.278Z,101900.75
2022-09-04T13:38:15.435Z,101907.75
2022-09-04T13:41:05.065Z,101907.84
2022-09-04T13:43:56.767Z,101897.22
2022-09-04T13:46:30.229Z,101906.56
2022-09-04T13:49:05.519Z,101907.56
2022-09-04T13:51:40.207Z,101903.44
2022-09-04T13:54:14.252Z,101903.44
2022-09-04T13:57:06.117Z,101906.13
2022-09-04T13:59:34.369Z,101904.59
2022-09-04T14:02:06.921Z,101905.13
2022-09-04T14:04:50.857Z,101899.34
2022-09-04T14:07:29.807Z,101906.47
2022-09-04T14:10:17.909Z,101903.50
2022-09-04T14:13:00.148Z,101905.94
2022-09-04T14:16:01.944Z,101910.03
2022-09-04T14:18:45.360Z,101899.69
2022-09-04T14:21:33.672Z,101895.66
2022-09-04T14:24:18.979Z,101896.94
2022-09-04T14:27:11.327Z,101900.44
2022-09-04T14:30:07.180Z,101917.84
2022-09-04T14:32:47.043Z,101908.56
2022-09-04T14:35:35.952Z,101909.97
2022-09-04T14:38:35.441Z,101911.69
2022-09-04T14:41:02.264Z,101914.84
2022-09-04T14:43:44.679Z,101909.16
2022-09-04T14:46:14.361Z,101918.25
2022-09-04T14:48:47.098Z,101911.44
2022-09-04T14:51:23.036Z,101913.22
2022-09-04T14:53:52.674Z,101922.16
2022-09-04T14:56:33.511Z,101918.03
2022-09-04T14:59:12.867Z,101915.94
2022-09-04T15:02:15.948Z,101915.47
2022-09-04T15:04:51.450Z,101913.28
2022-09-04T15:07:29.909Z,101917.59
2022-09-04T15:10:16.303Z,101921.38
2022-09-04T15:12:50.586Z,101920.94
2022-09-04T15:15:23.167Z,101928.28
2022-09-04T15:18:19.995Z,101929.00
2022-09-04T15:20:54.123Z,101938.25
2022-09-04T15:23:32.993Z,101927.00
2022-09-04T15:26:07.245Z,101927.88
2022-09-04T15:28:38.623Z,101932.31
2022-09-04T15:31:20.880Z,101933.06
2022-09-04T15:33:48.886Z,101929.78
2022-09-04T15:36:18.449Z,101922.91
2022-09-04T15:39:01.419Z,101929.28
2022-09-04T15:41:42.284Z,101931.31
2022-09-04T15:44:32.268Z,101929.09
2022-09-04T15:47:40.399Z,101931.16
2022-09-04T15:50:21.749Z,101921.91
2022-09-04T15:53:18.636Z,101929.56
2022-09-04T15:55:48.468Z,101929.50
2022-09-04T15:58:30.198Z,101932.94
2022-09-04T16:01:06.524Z,101925.81
2022-09-04T16:03:53.197Z,101930.91
2022-09-04T16:06:54.570Z,101939.44
2022-09-04T16:09:27.912Z,101939.50
2022-09-04T16:12:04.352Z,101942.78
2022-09-04T16:14:38.409Z,101946.84
2022-09-04T16:17:20.275Z,101943.50
2022-09-04T16:19:53.514Z,101938.06
2022-09-04T16:22:53.009Z,101945.94
2022-09-04T16:25:27.266Z,101941.66
2022-09-04T16:28:02.412Z,101953.88
2022-09-04T16:30:43.062Z,101954.50
2022-09-04T16:33:39.879Z,101952.78
2022-09-04T16:36:14.065Z,101953.22
2022-09-04T16:38:52.872Z,101963.84
2022-09-04T16:41:25.636Z,101954.84
2022-09-04T16:44:25.686Z,101952.13
2022-09-04T16:47:10.581Z,101966.63
2022-09-04T16:49:59.538Z,101963.78
2022-09-04T16:52:43.905Z,101958.19
2022-09-04T16:55:14.745Z,101964.06
2022-09-04T16:57:53.447Z,101964.63
2022-09-04T17:00:22.507Z,101972.31
2022-09-04T17:02:58.793Z,101972.34
2022-09-04T17:05:35.170Z,101973.97
2022-09-04T17:08:25.423Z,101980.13
2022-09-04T17:11:08.985Z,101979.97
2022-09-04T17:13:45.745Z,101981.53
2022-09-04T17:16:21.928Z,101983.53
2022-09-04T17:18:54.607Z,101986.53
2022-09-04T17:25:26.454Z,101989.84
2022-09-04T17:28:56.995Z,101988.94
2022-09-04T17:29:15.825Z,101990.09
2022-09-04T17:31:09.325Z,101995.97
2022-09-04T17:40:38.111Z,101993.84
2022-09-04T17:40:39.845Z,101996.03
2022-09-04T17:40:54.773Z,102004.66
2022-09-04T17:43:23.527Z,102016.31
2022-09-04T17:46:12.708Z,102009.38
2022-09-04T17:48:45.073Z,102020.22
2022-09-04T17:51:21.761Z,102026.44
2022-09-04T17:53:55.505Z,102029.66
2022-09-04T17:56:28.209Z,102038.31
2022-09-04T17:59:12.158Z,102035.00
2022-09-04T18:02:01.315Z,102041.03
2022-09-04T18:04:47.303Z,102047.09
2022-09-04T18:07:53.172Z,102056.16
2022-09-04T18:10:38.208Z,102068.59
2022-09-04T18:13:36.780Z,102067.22
2022-09-04T18:16:14.534Z,102070.78
2022-09-04T18:18:59.122Z,102075.34
2022-09-04T18:21:30.061Z,102078.78
2022-09-04T18:24:09.505Z,102086.44
2022-09-04T18:26:41.191Z,102093.63
2022-09-04T18:31:07.303Z,102095.84
2022-09-04T18:37:18.591Z,102092.13
2022-09-04T18:37:24.549Z,102097.66
2022-09-04T18:39:09.027Z,102099.97
2022-09-04T18:49:57.446Z,102105.63
2022-09-04T18:50:34.959Z,102103.19
2022-09-04T18:50:40.367Z,102104.00
2022-09-04T18:53:37.453Z,102108.94
2022-09-04T18:56:20.869Z,102113.34
2022-09-04T18:59:02.520Z,102118.59
2022-09-04T19:01:45.702Z,102118.75
2022-09-04T19:04:19.425Z,102133.38
2022-09-04T19:07:07.419Z,102131.63
2022-09-04T19:10:09.392Z,102125.72
2022-09-04T19:12:48.022Z,102136.72
2022-09-04T19:15:49.083Z,102137.69
2022-09-04T19:18:58.413Z,102135.81
2022-09-04T19:22:09.220Z,102135.00
2022-09-04T19:24:56.600Z,102143.66
2022-09-04T19:27:53.165Z,102148.56
2022-09-04T19:30:27.916Z,102152.31
2022-09-04T19:33:16.059Z,102144.31
2022-09-04T19:35:58.062Z,102153.09
2022-09-04T19:45:56.852Z,102145.63
2022-09-04T19:46:00.852Z,102153.09
2022-09-04T19:46:15.049Z,102156.41
2022-09-04T19:47:26.951Z,102152.56
2022-09-04T19:53:23.137Z,102164.75
2022-09-04T19:53:38.680Z,102164.09
2022-09-04T19:56:27.506Z,102165.09
2022-09-04T19:59:18.585Z,102171.88
2022-09-04T20:01:52.280Z,102169.44
2022-09-04T20:04:47.084Z,102175.13
2022-09-04T20:07:46.881Z,102174.69
2022-09-04T20:10:23.046Z,102178.88
2022-09-04T20:13:01.853Z,102173.41
2022-09-04T20:15:31.645Z,102175.41
2022-09-04T20:18:17.370Z,102176.34
2022-09-04T20:21:01.274Z,102174.91
2022-09-04T20:23:38.207Z,102179.50
2022-09-04T20:26:23.841Z,102181.47
2022-09-04T20:29:06.075Z,102178.16
2022-09-04T20:31:54.938Z,102180.78
2022-09-04T20:34:43.668Z,102188.97
2022-09-04T20:37:20.245Z,102183.97
2022-09-04T20:40:26.867Z,102190.91
2022-09-04T20:43:03.302Z,102202.59
2022-09-04T20:50:03.224Z,102208.16
2022-09-04T20:52:50.004Z,102203.16
2022-09-04T20:52:52.792Z,102211.03
2022-09-04T20:54:23.444Z,102198.78
2022-09-04T21:00:02.674Z,102208.06
2022-09-04T21:03:20.866Z,102212.91
2022-09-04T21:03:41.792Z,102215.19
2022-09-04T21:06:30.454Z,102217.28
2022-09-04T21:09:13.366Z,102219.75
2022-09-04T21:11:48.862Z,102213.16
2022-09-04T21:14:19.827Z,102223.47
2022-09-04T21:17:02.072Z,102224.31
2022-09-04T21:20:03.043Z,102223.88
2022-09-04T21:22:36.168Z,102229.47
2022-09-04T21:25:18.403Z,102240.13
2022-09-04T21:28:04.731Z,102235.84
2022-09-04T21:30:50.419Z,102237.72
2022-09-04T21:33:28.200Z,102236.09
2022-09-04T21:36:25.544Z,102235.06
2022-09-04T21:39:27.855Z,102242.13
2022-09-04T21:42:17.606Z,102242.84
2022-09-04T21:44:56.539Z,102244.53
2022-09-04T21:47:38.812Z,102243.31
2022-09-04T21:50:36.716Z,102249.97
2022-09-04T21:53:06.857Z,102251.41
2022-09-04T21:59:28.235Z,102243.75
2022-09-04T22:02:29.269Z,102253.66
2022-09-04T22:02:41.702Z,102248.50
2022-09-04T22:04:55.440Z,102253.47
2022-09-04T22:10:49.532Z,102257.38
2022-09-04T22:13:43.726Z,102258.00
2022-09-04T22:13:50.791Z,102256.56
2022-09-04T22:16:41.929Z,102252.00
2022-09-04T22:19:49.308Z,102258.66
2022-09-04T22:22:43.623Z,102252.44
2022-09-04T22:25:41.211Z,102262.34
2022-09-04T22:28:25.845Z,102266.22
2022-09-04T22:31:22.544Z,102262.78
2022-09-04T22:34:24.149Z,102267.66
2022-09-04T22:37:00.743Z,102262.31
2022-09-04T22:39:39.492Z,102272.44
2022-09-04T22:42:44.471Z,102268.56
2022-09-04T22:45:43.124Z,102273.72
2022-09-04T22:48:41.142Z,102274.97
2022-09-04T22:51:33.211Z,102273.44
2022-09-04T22:54:21.445Z,102278.00
2022-09-04T22:57:10.404Z,102279.22
2022-09-04T22:59:42.458Z,102278.44
2022-09-04T23:03:07.269Z,102279.22
2022-09-04T23:07:45.702Z,102285.84
2022-09-04T23:13:46.414Z,102287.41
2022-09-04T23:14:00.808Z,102286.28
2022-09-04T23:15:19.427Z,102293.66
2022-09-04T23:18:03.644Z,102289.56
2022-09-04T23:26:39.094Z,102296.88
2022-09-04T23:26:50.537Z,102287.50
2022-09-04T23:27:41.697Z,102290.97
2022-09-04T23:30:12.544Z,102288.72
2022-09-04T23:33:02.869Z,102295.75
2022-09-04T23:35:51.716Z,102291.63
2022-09-04T23:38:55.996Z,102292.63
2022-09-04T23:42:00.445Z,102293.97
2022-09-04T23:44:41.943Z,102300.84
2022-09-04T23:47:47.843Z,102302.25
2022-09-04T23:50:59.283Z,102304.28
2022-09-04T23:53:44.784Z,102295.47
2022-09-04T23:56:29.896Z,102299.25
2022-09-04T23:59:34.048Z,102297.91
